Time;durP1;ratioP1;P1;durP2;ratioP2;P2;SDS_P1;SDS_P2;PMS_P1;PMS_P2;Temp;Humidity;BMP_temperature;BMP_pressure;BME280_temperature;BME280_humidity;BME280_pressure;Samples;Min_cycle;Max_cycle;Signal;HPM_P1;HPM_P2
2022/03/03 00:02:21;;;;;;;19.88;3.10;;;22.80;99.90;;;;;;5073203;28;20343;-73
2022/03/03 00:04:49;;;;;;;18.70;3.17;;;22.80;99.90;;;;;;5073929;28;20066;-72
2022/03/03 00:07:16;;;;;;;15.43;3.15;;;22.80;99.90;;;;;;5073449;28;20579;-72
2022/03/03 00:09:44;;;;;;;17.20;2.95;;;22.80;99.90;;;;;;5073676;28;20051;-73
2022/03/03 00:12:11;;;;;;;14.65;3.45;;;22.80;99.90;;;;;;5073405;28;20035;-72
2022/03/03 00:14:39;;;;;;;20.27;3.78;;;22.90;99.90;;;;;;5073356;28;20119;-73
2022/03/03 00:17:07;;;;;;;17.95;2.97;;;23.00;99.90;;;;;;5073043;28;20031;-72
2022/03/03 00:19:34;;;;;;;17.30;3.70;;;23.00;99.90;;;;;;5073637;28;20082;-71
2022/03/03 00:22:01;;;;;;;17.45;2.95;;;23.10;99.90;;;;;;5073443;28;20020;-72
2022/03/03 00:24:29;;;;;;;20.55;3.53;;;23.20;99.90;;;;;;5073515;28;20083;-72
2022/03/03 00:26:56;;;;;;;21.50;3.15;;;23.20;99.90;;;;;;5073377;28;20645;-72
2022/03/03 00:29:24;;;;;;;16.50;3.05;;;23.30;99.90;;;;;;5073178;28;20032;-73
2022/03/03 00:31:51;;;;;;;15.68;3.60;;;23.30;99.90;;;;;;5073552;28;20025;-72
2022/03/03 00:34:18;;;;;;;21.63;3.00;;;23.40;99.90;;;;;;5073309;28;20040;-73
2022/03/03 00:36:46;;;;;;;19.55;4.22;;;23.40;99.90;;;;;;5073557;28;20064;-74
2022/03/03 00:39:13;;;;;;;19.17;3.30;;;23.30;99.90;;;;;;5073451;28;20468;-73
2022/03/03 00:41:40;;;;;;;20.80;3.53;;;23.30;99.90;;;;;;5072699;28;20090;-71
2022/03/03 00:44:09;;;;;;;22.63;4.20;;;23.30;99.90;;;;;;5072981;28;20047;-71
2022/03/03 00:46:43;;;;;;;23.38;3.25;;;23.40;99.90;;;;;;5072902;28;20028;-72
2022/03/03 00:49:10;;;;;;;17.77;3.28;;;23.50;99.90;;;;;;5071615;28;20071;-71
2022/03/03 00:51:38;;;;;;;15.68;2.50;;;23.50;99.90;;;;;;5073055;28;20100;-72
2022/03/03 00:54:05;;;;;;;15.32;2.28;;;23.50;99.90;;;;;;5072550;28;20025;-71
2022/03/03 00:56:33;;;;;;;19.27;3.42;;;23.70;99.90;;;;;;5072723;28;20044;-72
2022/03/03 00:59:00;;;;;;;14.73;2.25;;;23.80;99.90;;;;;;5072492;28;20063;-72
2022/03/03 01:01:27;;;;;;;11.77;2.00;;;23.90;99.90;;;;;;5088460;28;20085;-71
2022/03/03 01:03:55;;;;;;;19.38;3.35;;;24.00;99.90;;;;;;5072763;28;20021;-72
2022/03/03 01:06:22;;;;;;;17.90;2.80;;;24.10;99.90;;;;;;5072479;28;20029;-72
2022/03/03 01:08:49;;;;;;;19.75;3.10;;;24.30;99.90;;;;;;5072286;28;20020;-71
2022/03/03 01:11:17;;;;;;;21.80;3.40;;;24.40;99.90;;;;;;5072206;28;20027;-72
2022/03/03 01:13:44;;;;;;;18.98;2.35;;;24.50;99.90;;;;;;5072270;28;20032;-71
2022/03/03 01:16:11;;;;;;;13.23;1.67;;;24.60;99.90;;;;;;5072594;28;20530;-72
2022/03/03 01:18:39;;;;;;;13.95;3.28;;;24.60;99.90;;;;;;5072836;28;20095;-73
2022/03/03 01:21:06;;;;;;;13.18;2.10;;;24.60;99.90;;;;;;5072330;28;20097;-73
2022/03/03 01:23:33;;;;;;;17.17;2.20;;;24.60;99.90;;;;;;5072120;28;20021;-73
2022/03/03 01:26:01;;;;;;;11.77;2.40;;;24.60;99.90;;;;;;5072094;28;20047;-71
2022/03/03 01:28:28;;;;;;;14.88;2.67;;;24.50;99.90;;;;;;5071843;28;20430;-73
2022/03/03 01:30:55;;;;;;;12.82;2.58;;;24.50;99.90;;;;;;5072038;28;20020;-73
2022/03/03 01:33:23;;;;;;;18.20;3.10;;;24.50;99.90;;;;;;5072071;28;20029;-73
2022/03/03 01:35:50;;;;;;;9.02;2.08;;;24.40;99.90;;;;;;5072183;28;20036;-71
2022/03/03 01:38:17;;;;;;;10.10;2.15;;;24.40;99.90;;;;;;5072138;28;20020;-71
2022/03/03 01:40:44;;;;;;;12.95;3.28;;;24.50;99.90;;;;;;5071456;28;20086;-71
2022/03/03 01:43:12;;;;;;;13.38;2.22;;;24.60;99.90;;;;;;5071884;28;20465;-73
2022/03/03 01:45:39;;;;;;;10.88;1.45;;;24.80;99.90;;;;;;5071756;28;20354;-73
2022/03/03 01:48:06;;;;;;;14.35;3.10;;;24.90;99.90;;;;;;5071443;28;20052;-72
2022/03/03 01:50:34;;;;;;;15.25;3.47;;;25.00;99.90;;;;;;5071088;28;20020;-72
2022/03/03 01:53:01;;;;;;;14.75;3.13;;;25.10;99.90;;;;;;5070959;28;20025;-73
2022/03/03 01:55:28;;;;;;;15.55;2.40;;;25.10;99.90;;;;;;5070836;28;20473;-72
2022/03/03 01:57:58;;;;;;;15.63;2.80;;;25.00;99.90;;;;;;5070999;28;20013;-72
2022/03/03 02:00:25;;;;;;;16.90;2.60;;;24.80;99.90;;;;;;5071601;28;20024;-72
2022/03/03 02:02:53;;;;;;;14.73;2.58;;;24.80;99.90;;;;;;5087086;28;20016;-73
2022/03/03 02:05:20;;;;;;;12.70;2.28;;;24.70;99.90;;;;;;5071194;28;20029;-73
2022/03/03 02:07:47;;;;;;;12.40;2.25;;;24.70;99.90;;;;;;5052958;28;20028;-72
2022/03/03 02:10:14;;;;;;;12.82;2.42;;;24.90;99.90;;;;;;5071343;28;20029;-72
2022/03/03 02:12:42;;;;;;;13.68;2.70;;;25.30;99.90;;;;;;5071290;28;20536;-73
2022/03/03 02:15:20;;;;;;;16.80;3.20;;;25.50;99.90;;;;;;5071167;28;20116;-72
2022/03/03 02:17:49;;;;;;;16.60;2.95;;;25.60;99.90;;;;;;5071186;28;20138;-73
2022/03/03 02:20:28;;;;;;;10.77;2.90;;;25.80;99.90;;;;;;5072255;28;20033;-72
2022/03/03 02:22:57;;;;;;;10.77;1.65;;;25.90;99.90;;;;;;5071688;28;20099;-70
2022/03/03 02:25:28;;;;;;;14.40;2.63;;;25.90;99.90;;;;;;5071024;28;20385;-73
2022/03/03 02:27:56;;;;;;;16.52;2.03;;;26.10;99.90;;;;;;5087510;28;20038;-71
2022/03/03 02:30:23;;;;;;;14.13;1.73;;;26.20;99.90;;;;;;5091217;28;20035;-79
2022/03/03 02:32:51;;;;;;;11.07;3.03;;;26.30;99.90;;;;;;5100950;28;20468;-74
2022/03/03 02:35:19;;;;;;;14.98;3.08;;;26.40;99.90;;;;;;5093566;28;20043;-73
2022/03/03 02:37:47;;;;;;;9.45;1.88;;;26.30;99.90;;;;;;5054374;28;20032;-75
2022/03/03 02:40:20;;;;;;;12.15;2.05;;;26.20;99.90;;;;;;5085912;28;20024;-74
2022/03/03 02:42:54;;;;;;;10.77;1.90;;;26.10;99.90;;;;;;5070816;28;20041;-74
2022/03/03 02:45:22;;;;;;;16.20;2.08;;;25.90;99.90;;;;;;5095471;28;20022;-74
2022/03/03 02:47:50;;;;;;;15.00;3.38;;;25.70;99.90;;;;;;5091280;28;20020;-76
2022/03/03 02:50:22;;;;;;;16.15;2.97;;;25.50;99.90;;;;;;5090705;28;20013;-71
2022/03/03 02:52:49;;;;;;;11.70;1.95;;;25.50;99.90;;;;;;5095125;28;20030;-72
2022/03/03 02:55:17;;;;;;;19.75;2.75;;;25.40;99.90;;;;;;5095341;28;20063;-77
2022/03/03 02:57:54;;;;;;;16.25;2.60;;;25.40;99.90;;;;;;5092367;28;20396;-75
2022/03/03 03:00:24;;;;;;;16.08;2.72;;;25.40;99.90;;;;;;5098242;28;20039;-73
2022/03/03 03:02:51;;;;;;;16.58;2.85;;;25.20;99.90;;;;;;5076845;28;20093;-73
2022/03/03 03:05:19;;;;;;;12.27;2.10;;;25.00;99.90;;;;;;5094717;28;20072;-74
2022/03/03 03:07:46;;;;;;;14.45;2.60;;;24.90;99.90;;;;;;5094565;28;20396;-73
2022/03/03 03:10:14;;;;;;;9.02;2.03;;;24.80;99.90;;;;;;5094760;28;20472;-72
2022/03/03 03:12:41;;;;;;;11.65;2.55;;;24.70;99.90;;;;;;5094770;28;20020;-73
2022/03/03 03:15:09;;;;;;;15.13;3.00;;;24.60;99.90;;;;;;5093428;28;20065;-73
2022/03/03 03:17:37;;;;;;;17.25;3.05;;;24.50;99.90;;;;;;5090607;28;20020;-73
2022/03/03 03:20:08;;;;;;;20.42;3.45;;;24.40;99.90;;;;;;5081093;28;20024;-74
2022/03/03 03:22:36;;;;;;;17.48;2.90;;;24.40;99.90;;;;;;5095663;28;20039;-74
2022/03/03 03:25:07;;;;;;;17.73;3.50;;;24.30;99.90;;;;;;5114227;28;20031;-74
2022/03/03 03:27:36;;;;;;;15.25;3.08;;;24.40;99.90;;;;;;5096432;28;20028;-73
2022/03/03 03:30:05;;;;;;;15.18;2.63;;;24.50;99.90;;;;;;5094585;28;20028;-75
2022/03/03 03:32:33;;;;;;;16.38;3.55;;;24.60;99.90;;;;;;5094399;28;20468;-75
2022/03/03 03:35:00;;;;;;;13.88;2.50;;;24.60;99.90;;;;;;5097631;28;20412;-75
2022/03/03 03:37:27;;;;;;;18.70;3.60;;;24.60;99.90;;;;;;5098489;28;20331;-75
2022/03/03 03:39:54;;;;;;;20.20;3.70;;;24.70;99.90;;;;;;5094331;28;20069;-76
2022/03/03 03:42:22;;;;;;;16.00;2.38;;;24.70;99.90;;;;;;5093813;28;20031;-70
2022/03/03 03:44:49;;;;;;;13.65;2.92;;;24.80;99.90;;;;;;5100162;28;20016;-75
2022/03/03 03:47:17;;;;;;;15.35;2.85;;;24.90;99.90;;;;;;5091780;28;20020;-76
2022/03/03 03:49:44;;;;;;;15.20;3.15;;;25.10;99.90;;;;;;5074359;28;20051;-74
2022/03/03 03:52:11;;;;;;;18.17;3.95;;;25.10;99.90;;;;;;5071908;28;20025;-76
2022/03/03 03:54:39;;;;;;;16.02;4.18;;;25.30;99.90;;;;;;5072839;28;20477;-73
2022/03/03 03:57:06;;;;;;;18.25;3.13;;;25.60;99.90;;;;;;5084555;28;20106;-74
2022/03/03 03:59:33;;;;;;;15.18;2.88;;;26.00;99.90;;;;;;5092160;28;20524;-72
2022/03/03 04:02:01;;;;;;;12.48;2.40;;;26.30;99.90;;;;;;5092648;28;20024;-74
2022/03/03 04:04:29;;;;;;;15.57;2.95;;;26.40;99.90;;;;;;5090893;28;20024;-73
2022/03/03 04:06:56;;;;;;;13.75;2.10;;;26.30;99.90;;;;;;5092419;28;20024;-74
2022/03/03 04:09:24;;;;;;;11.95;2.10;;;26.20;99.90;;;;;;5091378;28;20020;-74
2022/03/03 04:11:51;;;;;;;9.68;2.60;;;26.40;99.90;;;;;;5093465;28;20028;-74
2022/03/03 04:14:19;;;;;;;13.95;3.33;;;27.00;99.90;;;;;;5094120;28;20109;-74
2022/03/03 04:16:46;;;;;;;15.40;2.58;;;27.60;99.90;;;;;;5093757;28;20024;-74
2022/03/03 04:19:14;;;;;;;13.70;2.25;;;27.40;99.90;;;;;;5093516;28;20024;-72
2022/03/03 04:21:42;;;;;;;9.40;2.15;;;27.20;99.90;;;;;;5103127;28;20372;-73
2022/03/03 04:24:10;;;;;;;9.00;2.17;;;26.80;99.90;;;;;;5112779;28;20020;-73
2022/03/03 04:26:38;;;;;;;11.13;1.88;;;26.20;99.90;;;;;;5103433;28;20456;-70
2022/03/03 04:29:05;;;;;;;15.80;2.95;;;25.70;99.90;;;;;;5091231;28;20465;-71
2022/03/03 04:31:33;;;;;;;19.58;3.72;;;25.50;99.90;;;;;;5093359;28;20093;-71
2022/03/03 04:34:00;;;;;;;18.20;3.45;;;25.30;99.90;;;;;;5093537;28;20068;-76
2022/03/03 04:36:27;;;;;;;12.75;2.53;;;25.30;99.90;;;;;;5093586;28;20566;-72
2022/03/03 04:38:55;;;;;;;14.55;3.63;;;25.50;99.90;;;;;;5093286;28;20031;-78
2022/03/03 04:41:22;;;;;;;11.75;2.65;;;25.70;99.90;;;;;;5093436;28;20103;-73
2022/03/03 04:43:49;;;;;;;16.02;2.53;;;26.10;99.90;;;;;;5088902;28;20082;-72
2022/03/03 04:46:17;;;;;;;21.45;3.30;;;26.60;99.90;;;;;;5088046;28;20099;-75
2022/03/03 04:48:44;;;;;;;16.10;3.22;;;27.10;99.90;;;;;;5090856;28;20039;-75
2022/03/03 04:51:11;;;;;;;18.58;4.55;;;27.40;99.90;;;;;;5092304;28;20020;-77
2022/03/03 04:53:39;;;;;;;20.80;4.55;;;27.60;99.90;;;;;;5074074;28;20027;-75
2022/03/03 04:56:06;;;;;;;16.60;3.20;;;27.50;99.90;;;;;;5091995;28;20024;-76
2022/03/03 04:58:33;;;;;;;12.23;2.38;;;27.20;99.90;;;;;;5092625;28;20099;-78
2022/03/03 05:01:01;;;;;;;15.38;2.55;;;26.90;99.90;;;;;;5092929;28;20026;-75
2022/03/03 05:03:34;;;;;;;20.73;3.78;;;26.80;99.90;;;;;;5092868;28;20425;-76
2022/03/03 05:06:01;;;;;;;13.35;3.83;;;26.80;99.90;;;;;;5092177;28;20036;-74
2022/03/03 05:08:29;;;;;;;22.23;5.47;;;26.80;99.90;;;;;;5091856;28;20020;-78
2022/03/03 05:10:56;;;;;;;20.48;4.00;;;26.70;99.90;;;;;;5092758;28;20051;-78
2022/03/03 05:13:23;;;;;;;17.27;3.90;;;26.80;99.90;;;;;;5093156;28;20024;-79
2022/03/03 05:15:50;;;;;;;18.55;3.78;;;27.00;99.90;;;;;;5082325;28;20508;-77
2022/03/03 05:18:19;;;;;;;17.92;3.75;;;27.50;99.90;;;;;;5092687;28;20020;-76
2022/03/03 05:20:46;;;;;;;19.33;4.50;;;27.60;99.90;;;;;;5093112;28;20017;-77
2022/03/03 05:23:14;;;;;;;24.08;5.18;;;27.50;99.90;;;;;;5074145;28;20478;-76
2022/03/03 05:25:46;;;;;;;15.18;3.58;;;27.30;99.90;;;;;;5091719;28;20027;-81
2022/03/03 05:28:15;;;;;;;20.08;3.95;;;27.10;99.90;;;;;;5089740;28;20099;-75
2022/03/03 05:30:42;;;;;;;18.20;3.58;;;27.20;99.90;;;;;;5056693;28;20031;-72
2022/03/03 05:33:21;;;;;;;24.88;5.20;;;27.20;99.90;;;;;;5092856;28;20099;-81
2022/03/03 05:36:02;;;;;;;17.23;3.80;;;26.90;99.90;;;;;;5075562;28;20139;-78
2022/03/03 05:38:33;;;;;;;21.98;4.38;;;26.60;99.90;;;;;;5091740;28;20016;-76
2022/03/03 05:41:02;;;;;;;19.13;4.70;;;26.30;99.90;;;;;;5091340;28;20023;-78
2022/03/03 05:43:31;;;;;;;22.27;5.32;;;26.20;99.90;;;;;;5090803;28;20020;-74
2022/03/03 05:45:58;;;;;;;22.83;4.18;;;25.90;99.90;;;;;;5092140;28;20052;-79
2022/03/03 05:48:26;;;;;;;17.55;3.65;;;25.70;99.90;;;;;;5087180;28;20415;-75
2022/03/03 05:50:55;;;;;;;22.27;6.90;;;25.40;99.90;;;;;;5089349;28;20492;-76
2022/03/03 05:53:24;;;;;;;21.60;4.45;;;25.30;99.90;;;;;;5090329;28;20433;-75
2022/03/03 05:55:52;;;;;;;23.02;4.97;;;25.10;99.90;;;;;;5090382;28;20056;-74
2022/03/03 05:58:22;;;;;;;21.27;4.20;;;25.00;99.90;;;;;;5090784;28;20403;-75
2022/03/03 06:00:53;;;;;;;21.38;4.95;;;24.90;99.90;;;;;;5092671;28;20016;-75
2022/03/03 06:03:22;;;;;;;22.83;3.88;;;24.80;99.90;;;;;;5093960;28;20040;-78
2022/03/03 06:05:58;;;;;;;17.85;3.55;;;24.80;99.90;;;;;;5093318;28;20499;-76
2022/03/03 06:08:32;;;;;;;22.20;3.63;;;24.80;99.90;;;;;;5087619;28;20020;-79
2022/03/03 06:11:05;;;;;;;22.80;4.13;;;24.70;99.90;;;;;;5054551;28;20064;-77
2022/03/03 06:13:43;;;;;;;24.60;4.78;;;24.80;99.90;;;;;;5071072;28;20103;-78
2022/03/03 06:16:16;;;;;;;23.23;5.38;;;24.90;99.90;;;;;;5070525;28;20070;-77
2022/03/03 06:18:49;;;;;;;25.48;5.03;;;24.90;99.90;;;;;;5092735;28;20062;-80
2022/03/03 06:21:18;;;;;;;27.58;5.18;;;25.00;99.90;;;;;;5092527;28;20476;-75
2022/03/03 06:23:46;;;;;;;23.27;4.75;;;25.20;99.90;;;;;;5074164;28;20055;-77
2022/03/03 06:26:17;;;;;;;29.33;5.32;;;25.80;99.90;;;;;;5073008;28;20020;-73
2022/03/03 06:28:44;;;;;;;22.60;5.20;;;26.20;99.90;;;;;;5090321;28;20026;-73
2022/03/03 06:31:12;;;;;;;25.13;4.82;;;26.50;99.90;;;;;;5072925;28;20119;-75
2022/03/03 06:33:40;;;;;;;26.10;5.03;;;26.50;99.90;;;;;;5088529;28;20032;-74
2022/03/03 06:36:12;;;;;;;30.05;6.95;;;26.40;99.90;;;;;;5066480;28;20508;-77
2022/03/03 06:38:39;;;;;;;25.25;5.22;;;26.10;99.90;;;;;;5069064;28;20036;-74
2022/03/03 06:41:07;;;;;;;26.65;6.22;;;25.80;99.90;;;;;;5086981;28;20024;-78
2022/03/03 06:43:35;;;;;;;26.23;5.45;;;25.50;99.90;;;;;;5088462;28;20107;-83
2022/03/03 06:46:04;;;;;;;29.90;6.55;;;25.30;99.90;;;;;;5083045;28;20032;-75
2022/03/03 06:48:32;;;;;;;28.98;6.35;;;25.40;99.90;;;;;;5085029;28;20046;-74
2022/03/03 06:51:02;;;;;;;26.13;5.15;;;25.60;99.90;;;;;;5086609;28;20107;-72
2022/03/03 06:53:34;;;;;;;24.60;4.50;;;25.70;99.90;;;;;;5090150;28;20089;-74
2022/03/03 06:56:12;;;;;;;17.27;3.80;;;25.90;99.90;;;;;;5089428;28;20028;-77
2022/03/03 06:58:40;;;;;;;20.77;4.85;;;26.30;99.90;;;;;;5072636;28;20032;-75
2022/03/03 07:01:12;;;;;;;18.08;3.10;;;26.90;99.90;;;;;;5091264;28;20028;-77
2022/03/03 07:03:44;;;;;;;17.40;4.60;;;27.30;99.90;;;;;;5090688;28;20032;-78
2022/03/03 07:06:15;;;;;;;24.92;5.13;;;27.30;99.90;;;;;;5072431;28;20075;-74
2022/03/03 07:08:43;;;;;;;23.35;4.45;;;27.00;99.90;;;;;;5085141;28;20032;-78
2022/03/03 07:11:11;;;;;;;23.02;4.25;;;26.60;99.90;;;;;;5090296;28;20016;-74
2022/03/03 07:13:39;;;;;;;22.75;4.60;;;26.20;99.90;;;;;;5089959;28;20085;-75
2022/03/03 07:16:12;;;;;;;26.17;5.15;;;25.90;99.90;;;;;;5090499;28;20494;-76
2022/03/03 07:18:43;;;;;;;17.52;4.35;;;25.80;99.90;;;;;;5090230;28;20377;-74
2022/03/03 07:21:39;;;;;;;17.30;3.92;;;25.90;99.90;;;;;;5089094;28;20031;-76
2022/03/03 07:24:33;;;;;;;24.45;5.40;;;25.80;99.90;;;;;;5080992;28;20030;-76
2022/03/03 07:27:04;;;;;;;18.90;4.22;;;25.40;99.90;;;;;;5054006;28;20028;-74
2022/03/03 07:29:36;;;;;;;19.30;3.80;;;25.10;99.90;;;;;;5090857;28;20464;-74
2022/03/03 07:32:10;;;;;;;22.17;5.03;;;24.90;99.90;;;;;;5091482;28;20031;-73
2022/03/03 07:34:39;;;;;;;21.27;5.30;;;24.80;99.90;;;;;;5061222;28;20545;-75
2022/03/03 07:37:12;;;;;;;15.63;4.15;;;24.60;99.90;;;;;;5049796;28;20040;-75
2022/03/03 07:39:46;;;;;;;23.25;4.82;;;24.50;99.90;;;;;;5052464;28;20017;-73
2022/03/03 07:42:17;;;;;;;19.95;3.92;;;24.40;99.90;;;;;;5052409;28;20029;-77
2022/03/03 07:44:46;;;;;;;24.98;6.93;;;24.30;99.90;;;;;;5052142;28;20025;-74
2022/03/03 07:47:13;;;;;;;15.32;4.60;;;24.20;99.90;;;;;;5054098;28;20057;-75
2022/03/03 07:49:41;;;;;;;24.27;4.28;;;24.00;99.90;;;;;;5054950;28;20024;-74
2022/03/03 07:52:09;;;;;;;21.45;5.38;;;24.00;99.90;;;;;;5036639;28;20021;-74
2022/03/03 07:54:37;;;;;;;21.88;3.97;;;23.90;99.90;;;;;;5054280;28;20017;-74
2022/03/03 07:57:11;;;;;;;25.83;5.50;;;23.90;99.90;;;;;;5053338;28;20029;-75
2022/03/03 07:59:39;;;;;;;24.98;5.13;;;23.80;99.90;;;;;;5054094;28;20052;-79
2022/03/03 08:02:06;;;;;;;31.42;4.38;;;23.80;99.90;;;;;;5054619;28;20028;-74
2022/03/03 08:04:36;;;;;;;27.83;5.72;;;23.70;99.90;;;;;;5053275;28;20036;-74
2022/03/03 08:07:08;;;;;;;29.42;5.28;;;23.60;99.90;;;;;;5054302;28;20025;-73
2022/03/03 08:09:40;;;;;;;31.58;5.22;;;23.70;99.90;;;;;;5053787;28;20025;-74
2022/03/03 08:12:07;;;;;;;;;;;23.60;99.90;;;;;;5055786;28;20028;-73
2022/03/03 08:14:36;;;;;;;36.17;7.57;;;23.60;99.90;;;;;;5053640;28;19905;-76
2022/03/03 08:17:05;;;;;;;33.25;6.00;;;23.60;99.90;;;;;;5052833;28;20033;-74
2022/03/03 08:19:32;;;;;;;28.83;6.40;;;23.60;99.90;;;;;;5053601;28;20376;-72
2022/03/03 08:22:00;;;;;;;27.90;5.28;;;23.60;99.90;;;;;;5053776;28;20041;-75
2022/03/03 08:24:28;;;;;;;28.23;5.00;;;23.50;99.90;;;;;;5053337;28;20029;-74
2022/03/03 08:26:56;;;;;;;17.85;3.65;;;23.50;99.90;;;;;;5053421;28;20477;-73
2022/03/03 08:29:24;;;;;;;25.25;5.35;;;23.40;99.90;;;;;;5051892;28;20696;-74
2022/03/03 08:31:57;;;;;;;23.45;6.35;;;23.40;99.90;;;;;;5085335;28;20032;-71
2022/03/03 08:34:42;;;;;;;22.67;5.15;;;23.30;99.90;;;;;;5065270;28;20044;-73
2022/03/03 08:37:19;;;;;;;18.05;3.85;;;23.20;99.90;;;;;;5075196;28;20125;-73
2022/03/03 08:39:51;;;;;;;25.55;4.90;;;23.10;99.90;;;;;;5075399;28;20020;-71
2022/03/03 08:42:26;;;;;;;16.25;4.82;;;23.00;99.90;;;;;;5093309;28;20024;-74
2022/03/03 08:45:01;;;;;;;20.88;4.32;;;22.90;99.90;;;;;;5074806;28;20105;-72
2022/03/03 08:47:30;;;;;;;19.83;4.18;;;22.90;99.90;;;;;;5093037;28;20024;-75
2022/03/03 08:50:08;;;;;;;18.83;3.65;;;22.80;99.90;;;;;;5092784;28;20408;-75
2022/03/03 08:52:39;;;;;;;21.60;3.97;;;22.80;99.90;;;;;;5092960;28;20078;-72
2022/03/03 08:55:09;;;;;;;22.92;5.05;;;22.80;99.90;;;;;;5092258;28;20071;-71
2022/03/03 08:57:42;;;;;;;16.50;3.22;;;22.70;99.90;;;;;;5072270;28;20415;-75
2022/03/03 09:00:12;;;;;;;21.40;3.78;;;22.70;99.90;;;;;;5064911;28;20024;-73
2022/03/03 09:02:43;;;;;;;10.32;2.38;;;22.60;99.90;;;;;;5092047;28;20024;-73
2022/03/03 09:05:11;;;;;;;14.88;3.35;;;22.60;99.90;;;;;;5092334;28;20016;-74
2022/03/03 09:07:39;;;;;;;15.73;3.50;;;22.50;99.90;;;;;;5092492;28;20055;-73
2022/03/03 09:10:07;;;;;;;21.60;5.28;;;22.60;99.90;;;;;;5092041;28;20058;-73
2022/03/03 09:12:36;;;;;;;16.77;3.85;;;22.50;99.90;;;;;;5092953;28;20077;-74
2022/03/03 09:15:05;;;;;;;20.80;3.40;;;22.50;99.90;;;;;;5092514;28;20027;-73
2022/03/03 09:17:33;;;;;;;19.63;3.92;;;22.50;99.90;;;;;;5091080;28;20441;-74
2022/03/03 09:20:02;;;;;;;26.42;3.42;;;22.50;99.90;;;;;;5090919;28;20108;-72
2022/03/03 09:22:30;;;;;;;25.08;4.90;;;22.50;99.90;;;;;;5091915;28;20111;-78
2022/03/03 09:24:57;;;;;;;25.60;5.13;;;22.50;99.90;;;;;;5091575;28;20095;-80
2022/03/03 09:27:24;;;;;;;24.48;4.05;;;22.50;99.90;;;;;;5094125;28;20012;-78
2022/03/03 09:29:54;;;;;;;30.70;4.80;;;22.50;99.90;;;;;;5073111;28;20108;-74
2022/03/03 09:32:22;;;;;;;26.70;5.03;;;22.50;99.90;;;;;;5085190;28;20107;-78
2022/03/03 09:34:52;;;;;;;27.30;4.60;;;22.60;99.90;;;;;;5087199;28;20043;-74
2022/03/03 09:37:19;;;;;;;26.27;5.13;;;22.60;99.90;;;;;;5092342;28;20024;-72
2022/03/03 09:39:50;;;;;;;20.92;3.97;;;22.60;99.90;;;;;;5091139;28;20085;-75
2022/03/03 09:42:18;;;;;;;19.40;3.28;;;22.60;99.90;;;;;;5089906;28;20020;-80
2022/03/03 09:44:46;;;;;;;21.75;3.75;;;22.50;99.90;;;;;;5091107;28;20020;-75
2022/03/03 09:47:17;;;;;;;14.60;3.10;;;22.60;99.90;;;;;;5090961;28;20028;-74
2022/03/03 09:49:45;;;;;;;12.02;2.55;;;22.60;99.90;;;;;;5072756;28;20020;-75
2022/03/03 09:52:18;;;;;;;12.23;2.33;;;22.50;99.90;;;;;;5090963;28;20102;-74
2022/03/03 09:54:49;;;;;;;11.82;2.80;;;22.50;99.90;;;;;;5090974;28;20380;-74
2022/03/03 09:57:17;;;;;;;16.65;3.42;;;22.40;99.90;;;;;;5090822;28;20052;-74
2022/03/03 09:59:48;;;;;;;14.90;3.03;;;22.30;99.90;;;;;;5090592;28;20388;-75
2022/03/03 10:02:15;;;;;;;20.55;3.75;;;22.30;99.90;;;;;;5089940;28;20054;-72
2022/03/03 10:04:43;;;;;;;20.25;3.65;;;22.30;99.90;;;;;;5090496;28;20044;-74
2022/03/03 10:07:11;;;;;;;22.13;3.28;;;22.30;99.90;;;;;;5090123;28;20013;-77
2022/03/03 10:12:30;;;;;;;18.20;3.10;;;22.20;99.90;;;;;;5088941;28;20024;-74
2022/03/03 10:15:00;;;;;;;11.85;2.92;;;22.20;99.90;;;;;;5088602;28;20036;-74
2022/03/03 10:17:38;;;;;;;17.63;3.45;;;22.10;99.90;;;;;;5073111;28;20385;-74
2022/03/03 10:20:07;;;;;;;14.90;2.40;;;22.00;99.90;;;;;;5073796;28;20020;-74
2022/03/03 10:22:57;;;;;;;14.20;2.60;;;22.00;99.90;;;;;;5073392;28;20031;-75
2022/03/03 10:25:43;;;;;;;16.98;3.45;;;22.00;99.90;;;;;;5091612;28;20524;-75
2022/03/03 10:28:37;;;;;;;18.10;2.88;;;22.00;99.90;;;;;;5091680;28;20047;-77
2022/03/03 10:31:10;;;;;;;21.77;4.00;;;22.00;99.90;;;;;;5088340;28;20031;-75
2022/03/03 10:33:47;;;;;;;17.60;4.00;;;22.10;99.90;;;;;;5089376;28;20012;-73
2022/03/03 10:36:26;;;;;;;27.63;4.50;;;22.10;99.90;;;;;;5088645;28;20036;-74
2022/03/03 10:38:58;;;;;;;25.23;4.43;;;22.10;99.90;;;;;;5088357;28;20050;-74
2022/03/03 10:41:33;;;;;;;26.58;3.40;;;22.10;99.90;;;;;;5090729;28;20061;-74
2022/03/03 10:44:02;;;;;;;18.67;3.33;;;22.10;99.90;;;;;;5088883;28;20005;-74
2022/03/03 10:46:31;;;;;;;20.17;3.33;;;22.00;99.90;;;;;;5090707;28;20464;-75
2022/03/03 10:48:59;;;;;;;21.25;4.18;;;22.10;99.90;;;;;;5091112;28;20108;-75
2022/03/03 10:51:26;;;;;;;22.55;3.22;;;22.00;99.90;;;;;;5091281;28;20008;-74
2022/03/03 10:53:58;;;;;;;25.58;4.28;;;22.00;99.90;;;;;;5088205;28;20024;-74
2022/03/03 10:56:25;;;;;;;23.45;4.78;;;21.90;99.90;;;;;;5072495;28;20373;-74
2022/03/03 10:59:00;;;;;;;27.95;3.72;;;22.00;99.90;;;;;;5090412;28;20050;-74
2022/03/03 11:01:33;;;;;;;27.80;4.20;;;22.00;99.90;;;;;;5090692;28;20016;-74
2022/03/03 11:04:01;;;;;;;23.80;5.03;;;22.00;99.90;;;;;;5088850;28;20028;-74
2022/03/03 11:06:30;;;;;;;28.70;4.88;;;22.00;99.90;;;;;;5072188;28;20031;-75
2022/03/03 11:09:02;;;;;;;19.67;4.80;;;22.00;99.90;;;;;;5090785;28;20410;-75
2022/03/03 11:11:29;;;;;;;22.65;3.83;;;22.00;99.90;;;;;;5073318;28;20020;-72
2022/03/03 11:13:56;;;;;;;26.27;4.75;;;22.00;99.90;;;;;;5094955;28;20027;-73
2022/03/03 11:16:25;;;;;;;21.05;3.78;;;22.00;99.90;;;;;;5094777;28;20031;-76
2022/03/03 11:18:55;;;;;;;30.35;6.45;;;22.00;99.90;;;;;;5074373;28;20103;-79
2022/03/03 11:21:22;;;;;;;39.72;6.55;;;22.00;99.90;;;;;;5094728;28;20035;-75
2022/03/03 11:24:00;;;;;;;36.15;6.15;;;22.00;99.90;;;;;;5094571;28;20443;-76
2022/03/03 11:26:41;;;;;;;35.88;7.03;;;22.00;99.90;;;;;;5094626;28;20026;-78
2022/03/03 11:29:10;;;;;;;34.72;7.25;;;22.00;99.90;;;;;;5095034;28;20020;-75
2022/03/03 11:31:39;;;;;;;40.05;7.68;;;22.00;99.90;;;;;;5094995;28;20020;-79
2022/03/03 11:34:31;;;;;;;33.78;5.70;;;22.00;99.90;;;;;;5095078;28;20438;-77
2022/03/03 11:37:02;;;;;;;34.55;6.70;;;22.10;99.90;;;;;;5095148;28;20032;-73
2022/03/03 11:39:41;;;;;;;33.95;6.78;;;22.10;99.90;;;;;;5094520;28;20380;-73
2022/03/03 11:42:34;;;;;;;37.53;7.90;;;22.10;99.90;;;;;;5094795;28;20032;-74
2022/03/03 11:45:08;;;;;;;41.78;8.10;;;22.10;99.90;;;;;;5083878;28;20043;-73
2022/03/03 11:47:37;;;;;;;39.38;6.80;;;22.20;99.90;;;;;;5094359;28;20051;-75
2022/03/03 11:50:13;;;;;;;35.80;7.28;;;22.30;99.90;;;;;;5094708;28;20024;-72
2022/03/03 11:52:42;;;;;;;39.10;7.97;;;22.30;99.90;;;;;;5094647;28;20096;-73
2022/03/03 11:55:35;;;;;;;33.10;6.20;;;22.30;99.90;;;;;;5093880;28;20032;-75
2022/03/03 11:58:24;;;;;;;35.85;6.55;;;22.30;99.90;;;;;;5094572;28;20048;-76
2022/03/03 12:01:02;;;;;;;34.33;6.63;;;22.40;99.90;;;;;;5076753;28;20036;-75
2022/03/03 12:03:29;;;;;;;33.78;6.97;;;22.40;99.90;;;;;;5076305;28;20016;-74
2022/03/03 12:06:14;;;;;;;48.83;8.32;;;22.30;99.90;;;;;;5094784;28;20414;-74
2022/03/03 12:08:42;;;;;;;41.85;7.40;;;22.30;99.90;;;;;;5094035;28;20095;-72
2022/03/03 12:11:14;;;;;;;31.25;6.07;;;22.30;99.90;;;;;;5094280;28;20073;-74
2022/03/03 12:13:43;;;;;;;36.13;7.38;;;22.30;99.90;;;;;;5094349;28;20004;-75
2022/03/03 12:16:21;;;;;;;28.20;6.05;;;22.30;99.90;;;;;;5094145;28;20035;-74
2022/03/03 12:18:56;;;;;;;32.25;6.03;;;22.30;99.90;;;;;;5075999;28;20020;-73
2022/03/03 12:21:23;;;;;;;33.90;6.05;;;22.30;99.90;;;;;;5094070;28;20047;-72
2022/03/03 12:23:51;;;;;;;37.20;7.22;;;22.30;99.90;;;;;;5093513;28;20021;-72
2022/03/03 12:26:18;;;;;;;33.15;6.43;;;22.30;99.90;;;;;;5094126;28;20027;-73
2022/03/03 12:28:47;;;;;;;32.53;4.95;;;22.30;99.90;;;;;;5093695;28;20028;-73
2022/03/03 12:31:39;;;;;;;28.42;4.55;;;22.20;99.90;;;;;;5075680;28;20037;-73
2022/03/03 12:34:08;;;;;;;34.13;6.63;;;22.20;99.90;;;;;;5093894;28;20044;-76
2022/03/03 12:36:44;;;;;;;38.45;6.03;;;22.20;99.90;;;;;;5074506;28;20043;-73
2022/03/03 12:39:12;;;;;;;32.15;5.63;;;22.20;99.90;;;;;;5093131;28;20016;-76
2022/03/03 12:41:40;;;;;;;44.75;7.07;;;22.20;99.90;;;;;;5093241;28;20028;-76
2022/03/03 12:44:13;;;;;;;36.92;5.57;;;22.30;99.90;;;;;;5092985;28;20047;-76
2022/03/03 12:46:43;;;;;;;41.08;6.90;;;22.30;99.90;;;;;;5093383;28;20020;-71
2022/03/03 12:49:15;;;;;;;36.47;5.93;;;22.30;99.90;;;;;;5093566;28;20077;-75
2022/03/03 12:51:50;;;;;;;28.00;4.15;;;22.30;99.90;;;;;;5093704;28;20648;-72
2022/03/03 12:54:19;;;;;;;29.88;4.60;;;22.30;99.90;;;;;;5093805;28;20500;-74
2022/03/03 12:57:08;;;;;;;31.42;7.43;;;22.30;99.90;;;;;;5093293;28;20038;-76